sensor_id;sensor_type;location;lat;lon;timestamp;temperature;humidity
6581;DHT22;3324;50.796;7.228;2023-08-07T00:02:05;14.10;99.90
6581;DHT22;3324;50.796;7.228;2023-08-07T00:04:32;14.10;99.90
6581;DHT22;3324;50.796;7.228;2023-08-07T00:06:57;14.10;99.90
6581;DHT22;3324;50.796;7.228;2023-08-07T00:09:23;14.10;99.90
6581;DHT22;3324;50.796;7.228;2023-08-07T00:11:49;14.10;99.90
6581;DHT22;3324;50.796;7.228;2023-08-07T00:14:14;14.10;99.90
6581;DHT22;3324;50.796;7.228;2023-08-07T00:16:41;14.00;99.90
6581;DHT22;3324;50.796;7.228;2023-08-07T00:19:07;14.10;99.90
6581;DHT22;3324;50.796;7.228;2023-08-07T00:21:32;14.10;99.90
6581;DHT22;3324;50.796;7.228;2023-08-07T00:24:01;14.00;99.90
6581;DHT22;3324;50.796;7.228;2023-08-07T00:26:26;14.00;99.90
6581;DHT22;3324;50.796;7.228;2023-08-07T00:28:52;14.00;99.90
6581;DHT22;3324;50.796;7.228;2023-08-07T00:31:17;14.00;99.90
6581;DHT22;3324;50.796;7.228;2023-08-07T00:33:43;14.00;99.90
6581;DHT22;3324;50.796;7.228;2023-08-07T00:36:08;13.90;99.90
6581;DHT22;3324;50.796;7.228;2023-08-07T00:38:34;13.90;99.90
6581;DHT22;3324;50.796;7.228;2023-08-07T00:41:00;13.90;99.90
6581;DHT22;3324;50.796;7.228;2023-08-07T00:43:25;13.90;99.90
6581;DHT22;3324;50.796;7.228;2023-08-07T00:45:51;13.90;99.90
6581;DHT22;3324;50.796;7.228;2023-08-07T00:48:17;13.90;99.90
6581;DHT22;3324;50.796;7.228;2023-08-07T00:50:44;14.00;99.90
6581;DHT22;3324;50.796;7.228;2023-08-07T00:53:11;13.90;99.90
6581;DHT22;3324;50.796;7.228;2023-08-07T00:55:37;13.90;99.90
6581;DHT22;3324;50.796;7.228;2023-08-07T00:58:02;13.90;99.90
6581;DHT22;3324;50.796;7.228;2023-08-07T01:00:31;13.90;99.90
6581;DHT22;3324;50.796;7.228;2023-08-07T01:02:57;13.90;99.90
6581;DHT22;3324;50.796;7.228;2023-08-07T01:05:26;14.00;99.90
6581;DHT22;3324;50.796;7.228;2023-08-07T01:07:53;13.90;99.90
6581;DHT22;3324;50.796;7.228;2023-08-07T01:16:10;13.90;99.90
6581;DHT22;3324;50.796;7.228;2023-08-07T01:18:38;14.00;99.90
6581;DHT22;3324;50.796;7.228;2023-08-07T01:21:05;14.00;99.90
6581;DHT22;3324;50.796;7.228;2023-08-07T01:23:30;13.90;99.90
6581;DHT22;3324;50.796;7.228;2023-08-07T01:25:56;13.90;99.90
6581;DHT22;3324;50.796;7.228;2023-08-07T01:28:29;13.90;99.90
6581;DHT22;3324;50.796;7.228;2023-08-07T01:31:00;13.90;99.90
6581;DHT22;3324;50.796;7.228;2023-08-07T01:33:57;13.90;99.90
6581;DHT22;3324;50.796;7.228;2023-08-07T01:36:27;13.90;99.90
6581;DHT22;3324;50.796;7.228;2023-08-07T01:38:55;13.90;99.90
6581;DHT22;3324;50.796;7.228;2023-08-07T01:41:22;13.90;99.90
6581;DHT22;3324;50.796;7.228;2023-08-07T01:43:48;13.90;99.90
6581;DHT22;3324;50.796;7.228;2023-08-07T01:46:14;13.90;99.90
6581;DHT22;3324;50.796;7.228;2023-08-07T01:48:40;13.80;99.90
6581;DHT22;3324;50.796;7.228;2023-08-07T01:51:05;13.80;99.90
6581;DHT22;3324;50.796;7.228;2023-08-07T01:53:31;13.80;99.90
6581;DHT22;3324;50.796;7.228;2023-08-07T01:55:56;13.80;99.90
6581;DHT22;3324;50.796;7.228;2023-08-07T01:58:22;13.80;99.90
6581;DHT22;3324;50.796;7.228;2023-08-07T02:00:48;13.80;99.90
6581;DHT22;3324;50.796;7.228;2023-08-07T02:03:13;13.80;99.90
6581;DHT22;3324;50.796;7.228;2023-08-07T02:05:39;13.80;99.90
6581;DHT22;3324;50.796;7.228;2023-08-07T02:08:04;13.90;99.90
6581;DHT22;3324;50.796;7.228;2023-08-07T02:10:30;13.80;99.90
6581;DHT22;3324;50.796;7.228;2023-08-07T02:12:57;13.80;99.90
6581;DHT22;3324;50.796;7.228;2023-08-07T02:15:24;13.90;99.90
6581;DHT22;3324;50.796;7.228;2023-08-07T02:17:50;13.90;99.90
6581;DHT22;3324;50.796;7.228;2023-08-07T02:20:16;13.80;99.90
6581;DHT22;3324;50.796;7.228;2023-08-07T02:22:41;13.80;99.90
6581;DHT22;3324;50.796;7.228;2023-08-07T02:25:07;13.90;99.90
6581;DHT22;3324;50.796;7.228;2023-08-07T02:27:33;13.80;99.90
6581;DHT22;3324;50.796;7.228;2023-08-07T02:29:58;13.80;99.90
6581;DHT22;3324;50.796;7.228;2023-08-07T02:32:24;13.80;99.90
6581;DHT22;3324;50.796;7.228;2023-08-07T02:34:49;13.80;99.90
6581;DHT22;3324;50.796;7.228;2023-08-07T02:37:15;13.80;99.90
6581;DHT22;3324;50.796;7.228;2023-08-07T02:39:42;13.80;99.90
6581;DHT22;3324;50.796;7.228;2023-08-07T02:42:07;13.80;99.90
6581;DHT22;3324;50.796;7.228;2023-08-07T02:44:33;13.70;99.90
6581;DHT22;3324;50.796;7.228;2023-08-07T02:46:58;13.80;99.90
6581;DHT22;3324;50.796;7.228;2023-08-07T02:49:24;13.80;99.90
6581;DHT22;3324;50.796;7.228;2023-08-07T02:51:50;13.80;99.90
6581;DHT22;3324;50.796;7.228;2023-08-07T02:54:15;13.80;99.90
6581;DHT22;3324;50.796;7.228;2023-08-07T02:56:41;13.90;99.90
6581;DHT22;3324;50.796;7.228;2023-08-07T02:59:07;13.80;99.90
6581;DHT22;3324;50.796;7.228;2023-08-07T03:01:32;13.80;99.90
6581;DHT22;3324;50.796;7.228;2023-08-07T03:03:58;13.80;99.90
6581;DHT22;3324;50.796;7.228;2023-08-07T03:06:24;13.70;99.90
6581;DHT22;3324;50.796;7.228;2023-08-07T03:08:49;13.80;99.90
6581;DHT22;3324;50.796;7.228;2023-08-07T03:11:15;13.80;99.90
6581;DHT22;3324;50.796;7.228;2023-08-07T03:13:40;13.70;99.90
6581;DHT22;3324;50.796;7.228;2023-08-07T03:16:07;13.70;99.90
6581;DHT22;3324;50.796;7.228;2023-08-07T03:18:34;13.80;99.90
6581;DHT22;3324;50.796;7.228;2023-08-07T03:20:59;13.80;99.90
6581;DHT22;3324;50.796;7.228;2023-08-07T03:23:26;13.80;99.90
6581;DHT22;3324;50.796;7.228;2023-08-07T03:26:06;13.80;99.90
6581;DHT22;3324;50.796;7.228;2023-08-07T03:28:32;13.80;99.90
6581;DHT22;3324;50.796;7.228;2023-08-07T03:30:58;13.70;99.90
6581;DHT22;3324;50.796;7.228;2023-08-07T03:33:24;13.70;99.90
6581;DHT22;3324;50.796;7.228;2023-08-07T03:35:49;13.70;99.90
6581;DHT22;3324;50.796;7.228;2023-08-07T03:38:15;13.70;99.90
6581;DHT22;3324;50.796;7.228;2023-08-07T03:40:41;13.60;99.90
6581;DHT22;3324;50.796;7.228;2023-08-07T03:43:06;13.60;99.90
6581;DHT22;3324;50.796;7.228;2023-08-07T03:45:32;13.60;99.90
6581;DHT22;3324;50.796;7.228;2023-08-07T03:47:57;13.60;99.90
6581;DHT22;3324;50.796;7.228;2023-08-07T03:50:23;13.60;99.90
6581;DHT22;3324;50.796;7.228;2023-08-07T03:52:49;13.60;99.90
6581;DHT22;3324;50.796;7.228;2023-08-07T03:55:14;13.60;99.90
6581;DHT22;3324;50.796;7.228;2023-08-07T03:57:40;13.60;99.90
6581;DHT22;3324;50.796;7.228;2023-08-07T04:00:06;13.60;99.90
6581;DHT22;3324;50.796;7.228;2023-08-07T04:02:32;13.50;99.90
6581;DHT22;3324;50.796;7.228;2023-08-07T04:04:58;13.60;99.90
6581;DHT22;3324;50.796;7.228;2023-08-07T04:07:23;13.50;99.90
6581;DHT22;3324;50.796;7.228;2023-08-07T04:09:49;13.60;99.90
6581;DHT22;3324;50.796;7.228;2023-08-07T04:12:15;13.60;99.90
6581;DHT22;3324;50.796;7.228;2023-08-07T04:14:40;13.60;99.90
6581;DHT22;3324;50.796;7.228;2023-08-07T04:17:06;13.60;99.90
6581;DHT22;3324;50.796;7.228;2023-08-07T04:19:32;13.60;99.90
6581;DHT22;3324;50.796;7.228;2023-08-07T04:21:57;13.50;99.90
6581;DHT22;3324;50.796;7.228;2023-08-07T04:24:23;13.60;99.90
6581;DHT22;3324;50.796;7.228;2023-08-07T04:26:49;13.50;99.90
6581;DHT22;3324;50.796;7.228;2023-08-07T04:29:14;13.50;99.90
6581;DHT22;3324;50.796;7.228;2023-08-07T04:31:40;13.40;99.90
6581;DHT22;3324;50.796;7.228;2023-08-07T04:34:05;13.50;99.90
6581;DHT22;3324;50.796;7.228;2023-08-07T04:36:31;13.50;99.90
6581;DHT22;3324;50.796;7.228;2023-08-07T04:38:57;13.40;99.90
6581;DHT22;3324;50.796;7.228;2023-08-07T04:41:22;13.40;99.90
6581;DHT22;3324;50.796;7.228;2023-08-07T04:43:48;13.40;99.90
6581;DHT22;3324;50.796;7.228;2023-08-07T04:46:14;13.40;99.90
6581;DHT22;3324;50.796;7.228;2023-08-07T04:48:40;13.40;99.90
6581;DHT22;3324;50.796;7.228;2023-08-07T04:51:06;13.40;99.90
6581;DHT22;3324;50.796;7.228;2023-08-07T04:53:32;13.40;99.90
6581;DHT22;3324;50.796;7.228;2023-08-07T04:55:59;13.40;99.90
6581;DHT22;3324;50.796;7.228;2023-08-07T04:58:25;13.40;99.90
6581;DHT22;3324;50.796;7.228;2023-08-07T05:00:59;13.40;99.90
6581;DHT22;3324;50.796;7.228;2023-08-07T05:03:25;13.50;99.90
6581;DHT22;3324;50.796;7.228;2023-08-07T05:05:58;13.40;99.90
6581;DHT22;3324;50.796;7.228;2023-08-07T05:08:24;13.40;99.90
6581;DHT22;3324;50.796;7.228;2023-08-07T05:10:49;13.40;99.90
6581;DHT22;3324;50.796;7.228;2023-08-07T05:13:15;13.40;99.90
6581;DHT22;3324;50.796;7.228;2023-08-07T05:15:41;13.40;99.90
6581;DHT22;3324;50.796;7.228;2023-08-07T05:18:06;13.40;99.90
6581;DHT22;3324;50.796;7.228;2023-08-07T05:20:32;13.40;99.90
6581;DHT22;3324;50.796;7.228;2023-08-07T05:22:58;13.40;99.90
6581;DHT22;3324;50.796;7.228;2023-08-07T05:25:23;13.40;99.90
6581;DHT22;3324;50.796;7.228;2023-08-07T05:27:49;13.40;99.90
6581;DHT22;3324;50.796;7.228;2023-08-07T05:30:14;13.50;99.90
6581;DHT22;3324;50.796;7.228;2023-08-07T05:32:40;13.50;99.90
6581;DHT22;3324;50.796;7.228;2023-08-07T05:35:07;13.50;99.90
6581;DHT22;3324;50.796;7.228;2023-08-07T05:37:33;13.50;99.90
6581;DHT22;3324;50.796;7.228;2023-08-07T05:39:59;13.50;99.90
6581;DHT22;3324;50.796;7.228;2023-08-07T05:42:25;13.60;99.90
6581;DHT22;3324;50.796;7.228;2023-08-07T05:44:51;13.50;99.90
6581;DHT22;3324;50.796;7.228;2023-08-07T05:47:17;13.50;99.90
6581;DHT22;3324;50.796;7.228;2023-08-07T05:49:42;13.50;99.90
6581;DHT22;3324;50.796;7.228;2023-08-07T05:52:08;13.50;99.90
6581;DHT22;3324;50.796;7.228;2023-08-07T05:54:34;13.50;99.90
6581;DHT22;3324;50.796;7.228;2023-08-07T05:56:59;13.60;99.90
6581;DHT22;3324;50.796;7.228;2023-08-07T05:59:25;13.60;99.90
6581;DHT22;3324;50.796;7.228;2023-08-07T06:01:51;13.60;99.90
6581;DHT22;3324;50.796;7.228;2023-08-07T06:04:17;13.60;99.90
6581;DHT22;3324;50.796;7.228;2023-08-07T06:06:43;13.60;99.90
6581;DHT22;3324;50.796;7.228;2023-08-07T06:09:09;13.60;99.90
6581;DHT22;3324;50.796;7.228;2023-08-07T06:11:34;13.60;99.90
6581;DHT22;3324;50.796;7.228;2023-08-07T06:14:00;13.70;99.90
6581;DHT22;3324;50.796;7.228;2023-08-07T06:16:26;13.60;99.90
6581;DHT22;3324;50.796;7.228;2023-08-07T06:18:53;13.70;99.90
6581;DHT22;3324;50.796;7.228;2023-08-07T06:21:18;13.70;99.90
6581;DHT22;3324;50.796;7.228;2023-08-07T06:23:45;13.70;99.90
6581;DHT22;3324;50.796;7.228;2023-08-07T06:26:12;13.70;99.90
6581;DHT22;3324;50.796;7.228;2023-08-07T06:28:38;13.70;99.90
6581;DHT22;3324;50.796;7.228;2023-08-07T06:31:09;13.70;99.90
6581;DHT22;3324;50.796;7.228;2023-08-07T06:33:35;13.70;99.90
6581;DHT22;3324;50.796;7.228;2023-08-07T06:36:02;13.70;99.90
6581;DHT22;3324;50.796;7.228;2023-08-07T06:38:27;13.70;99.90
6581;DHT22;3324;50.796;7.228;2023-08-07T06:40:53;13.70;99.90
6581;DHT22;3324;50.796;7.228;2023-08-07T06:43:19;13.80;99.90
6581;DHT22;3324;50.796;7.228;2023-08-07T06:45:52;13.70;99.90
6581;DHT22;3324;50.796;7.228;2023-08-07T06:48:18;13.70;99.90
6581;DHT22;3324;50.796;7.228;2023-08-07T06:50:44;13.70;99.90
6581;DHT22;3324;50.796;7.228;2023-08-07T06:53:11;13.70;99.90
6581;DHT22;3324;50.796;7.228;2023-08-07T06:55:37;13.60;99.90
6581;DHT22;3324;50.796;7.228;2023-08-07T06:58:02;13.60;99.90
6581;DHT22;3324;50.796;7.228;2023-08-07T07:00:28;13.60;99.90
6581;DHT22;3324;50.796;7.228;2023-08-07T07:02:53;13.60;99.90
6581;DHT22;3324;50.796;7.228;2023-08-07T07:05:19;13.60;99.90
6581;DHT22;3324;50.796;7.228;2023-08-07T07:07:45;13.50;99.90
6581;DHT22;3324;50.796;7.228;2023-08-07T07:10:10;13.50;99.90
6581;DHT22;3324;50.796;7.228;2023-08-07T07:12:36;13.60;99.90
6581;DHT22;3324;50.796;7.228;2023-08-07T07:15:02;13.50;99.90
6581;DHT22;3324;50.796;7.228;2023-08-07T07:17:27;13.50;99.90
6581;DHT22;3324;50.796;7.228;2023-08-07T07:19:53;13.50;99.90
6581;DHT22;3324;50.796;7.228;2023-08-07T07:22:19;13.50;99.90
6581;DHT22;3324;50.796;7.228;2023-08-07T07:24:44;13.40;99.90
6581;DHT22;3324;50.796;7.228;2023-08-07T07:27:10;13.40;99.90
6581;DHT22;3324;50.796;7.228;2023-08-07T07:29:36;13.40;99.90
6581;DHT22;3324;50.796;7.228;2023-08-07T07:32:01;13.50;99.90
6581;DHT22;3324;50.796;7.228;2023-08-07T07:34:27;13.40;99.90
6581;DHT22;3324;50.796;7.228;2023-08-07T07:36:52;13.40;99.90
6581;DHT22;3324;50.796;7.228;2023-08-07T07:39:19;13.40;99.90
6581;DHT22;3324;50.796;7.228;2023-08-07T07:41:45;13.40;99.90
6581;DHT22;3324;50.796;7.228;2023-08-07T07:44:10;13.40;99.90
6581;DHT22;3324;50.796;7.228;2023-08-07T07:46:36;13.40;99.90
6581;DHT22;3324;50.796;7.228;2023-08-07T07:49:02;13.40;99.90
6581;DHT22;3324;50.796;7.228;2023-08-07T07:51:29;13.40;99.90
6581;DHT22;3324;50.796;7.228;2023-08-07T07:53:54;13.40;99.90
6581;DHT22;3324;50.796;7.228;2023-08-07T07:56:20;13.40;99.90
6581;DHT22;3324;50.796;7.228;2023-08-07T07:58:46;13.40;99.90
6581;DHT22;3324;50.796;7.228;2023-08-07T08:01:11;13.50;99.90
6581;DHT22;3324;50.796;7.228;2023-08-07T08:03:37;13.50;99.90
6581;DHT22;3324;50.796;7.228;2023-08-07T08:06:02;13.50;99.90
6581;DHT22;3324;50.796;7.228;2023-08-07T08:08:28;13.40;99.90
6581;DHT22;3324;50.796;7.228;2023-08-07T08:10:54;13.60;99.90
6581;DHT22;3324;50.796;7.228;2023-08-07T08:13:20;13.60;99.90
6581;DHT22;3324;50.796;7.228;2023-08-07T08:15:45;13.70;99.90
6581;DHT22;3324;50.796;7.228;2023-08-07T08:18:11;13.70;99.90
6581;DHT22;3324;50.796;7.228;2023-08-07T08:20:38;13.70;99.90
6581;DHT22;3324;50.796;7.228;2023-08-07T08:23:04;13.70;99.90
6581;DHT22;3324;50.796;7.228;2023-08-07T08:25:30;13.70;99.90
6581;DHT22;3324;50.796;7.228;2023-08-07T08:27:56;13.70;99.90
6581;DHT22;3324;50.796;7.228;2023-08-07T08:30:22;13.70;99.90
6581;DHT22;3324;50.796;7.228;2023-08-07T08:32:47;13.70;99.90
6581;DHT22;3324;50.796;7.228;2023-08-07T08:35:13;13.70;99.90
6581;DHT22;3324;50.796;7.228;2023-08-07T08:37:39;13.80;99.90
6581;DHT22;3324;50.796;7.228;2023-08-07T08:40:06;13.80;99.90
6581;DHT22;3324;50.796;7.228;2023-08-07T08:42:34;13.80;99.90
6581;DHT22;3324;50.796;7.228;2023-08-07T08:45:00;13.80;99.90
6581;DHT22;3324;50.796;7.228;2023-08-07T08:47:29;13.80;99.90
6581;DHT22;3324;50.796;7.228;2023-08-07T08:50:07;13.90;99.90
6581;DHT22;3324;50.796;7.228;2023-08-07T08:52:33;13.90;99.90
6581;DHT22;3324;50.796;7.228;2023-08-07T08:54:59;14.00;99.90
6581;DHT22;3324;50.796;7.228;2023-08-07T08:57:25;13.90;99.90
6581;DHT22;3324;50.796;7.228;2023-08-07T08:59:53;13.90;99.90
6581;DHT22;3324;50.796;7.228;2023-08-07T09:02:20;14.00;99.90
6581;DHT22;3324;50.796;7.228;2023-08-07T09:04:46;14.00;99.90
6581;DHT22;3324;50.796;7.228;2023-08-07T09:07:14;14.00;99.90
6581;DHT22;3324;50.796;7.228;2023-08-07T09:09:40;14.00;99.90
6581;DHT22;3324;50.796;7.228;2023-08-07T09:12:08;14.00;99.90
6581;DHT22;3324;50.796;7.228;2023-08-07T09:14:38;14.10;99.90
6581;DHT22;3324;50.796;7.228;2023-08-07T09:17:06;14.10;99.90
6581;DHT22;3324;50.796;7.228;2023-08-07T09:19:33;14.10;99.90
6581;DHT22;3324;50.796;7.228;2023-08-07T09:21:58;14.20;99.90
6581;DHT22;3324;50.796;7.228;2023-08-07T09:24:24;14.30;99.90
6581;DHT22;3324;50.796;7.228;2023-08-07T09:26:51;14.40;99.90
6581;DHT22;3324;50.796;7.228;2023-08-07T09:29:17;14.40;99.90
6581;DHT22;3324;50.796;7.228;2023-08-07T09:31:43;14.40;99.90
6581;DHT22;3324;50.796;7.228;2023-08-07T09:34:13;14.50;99.90
6581;DHT22;3324;50.796;7.228;2023-08-07T09:36:40;14.60;99.90
6581;DHT22;3324;50.796;7.228;2023-08-07T09:39:06;14.70;99.90
6581;DHT22;3324;50.796;7.228;2023-08-07T09:41:32;14.70;99.90
6581;DHT22;3324;50.796;7.228;2023-08-07T09:43:58;14.80;99.90
6581;DHT22;3324;50.796;7.228;2023-08-07T09:46:25;14.90;99.90
6581;DHT22;3324;50.796;7.228;2023-08-07T09:48:51;14.90;99.90
6581;DHT22;3324;50.796;7.228;2023-08-07T09:51:16;14.90;99.90
6581;DHT22;3324;50.796;7.228;2023-08-07T09:53:42;14.80;99.90
6581;DHT22;3324;50.796;7.228;2023-08-07T09:56:08;14.80;99.90
6581;DHT22;3324;50.796;7.228;2023-08-07T09:58:34;14.80;99.90
6581;DHT22;3324;50.796;7.228;2023-08-07T10:01:04;14.90;99.90
6581;DHT22;3324;50.796;7.228;2023-08-07T10:03:29;14.80;99.90
6581;DHT22;3324;50.796;7.228;2023-08-07T10:05:56;14.80;99.90
6581;DHT22;3324;50.796;7.228;2023-08-07T10:08:22;14.80;99.90
6581;DHT22;3324;50.796;7.228;2023-08-07T10:10:48;14.90;99.90
6581;DHT22;3324;50.796;7.228;2023-08-07T10:13:14;15.00;99.90
6581;DHT22;3324;50.796;7.228;2023-08-07T10:15:40;15.20;99.90
6581;DHT22;3324;50.796;7.228;2023-08-07T10:18:08;15.30;99.90
6581;DHT22;3324;50.796;7.228;2023-08-07T10:20:34;15.40;99.90
6581;DHT22;3324;50.796;7.228;2023-08-07T10:23:07;15.40;99.90
6581;DHT22;3324;50.796;7.228;2023-08-07T10:25:43;15.40;99.90
6581;DHT22;3324;50.796;7.228;2023-08-07T10:28:14;15.40;99.90
6581;DHT22;3324;50.796;7.228;2023-08-07T10:30:42;15.40;99.90
6581;DHT22;3324;50.796;7.228;2023-08-07T10:33:09;15.50;99.90
6581;DHT22;3324;50.796;7.228;2023-08-07T10:35:35;15.50;99.90
6581;DHT22;3324;50.796;7.228;2023-08-07T10:38:11;15.50;99.90
6581;DHT22;3324;50.796;7.228;2023-08-07T10:41:00;15.50;99.90
6581;DHT22;3324;50.796;7.228;2023-08-07T10:43:29;15.60;99.90
6581;DHT22;3324;50.796;7.228;2023-08-07T10:48:40;15.80;99.90
6581;DHT22;3324;50.796;7.228;2023-08-07T10:51:06;16.00;99.90
6581;DHT22;3324;50.796;7.228;2023-08-07T10:53:34;16.20;99.90
6581;DHT22;3324;50.796;7.228;2023-08-07T10:56:04;16.30;99.90
6581;DHT22;3324;50.796;7.228;2023-08-07T10:58:37;16.40;99.90
6581;DHT22;3324;50.796;7.228;2023-08-07T11:01:21;16.70;99.90
6581;DHT22;3324;50.796;7.228;2023-08-07T11:03:54;17.10;99.90
6581;DHT22;3324;50.796;7.228;2023-08-07T11:08:51;17.20;99.90
6581;DHT22;3324;50.796;7.228;2023-08-07T11:11:17;17.10;99.90
6581;DHT22;3324;50.796;7.228;2023-08-07T11:13:43;17.00;99.90
6581;DHT22;3324;50.796;7.228;2023-08-07T11:16:08;17.10;99.90
6581;DHT22;3324;50.796;7.228;2023-08-07T11:18:34;17.30;99.90
6581;DHT22;3324;50.796;7.228;2023-08-07T11:21:01;17.70;99.90
6581;DHT22;3324;50.796;7.228;2023-08-07T11:23:28;17.90;99.90
6581;DHT22;3324;50.796;7.228;2023-08-07T11:25:54;17.80;99.90
6581;DHT22;3324;50.796;7.228;2023-08-07T11:28:21;17.80;99.90
6581;DHT22;3324;50.796;7.228;2023-08-07T11:30:49;17.60;99.90
6581;DHT22;3324;50.796;7.228;2023-08-07T11:33:17;17.50;99.90
6581;DHT22;3324;50.796;7.228;2023-08-07T11:35:43;17.40;99.90
6581;DHT22;3324;50.796;7.228;2023-08-07T11:38:09;17.20;99.90
6581;DHT22;3324;50.796;7.228;2023-08-07T11:40:35;17.30;99.90
6581;DHT22;3324;50.796;7.228;2023-08-07T11:43:01;17.40;99.90
6581;DHT22;3324;50.796;7.228;2023-08-07T11:45:27;17.60;99.90
6581;DHT22;3324;50.796;7.228;2023-08-07T11:47:53;18.00;99.90
6581;DHT22;3324;50.796;7.228;2023-08-07T11:50:22;18.30;99.90
6581;DHT22;3324;50.796;7.228;2023-08-07T11:52:48;18.60;99.90
6581;DHT22;3324;50.796;7.228;2023-08-07T11:55:17;18.50;99.90
6581;DHT22;3324;50.796;7.228;2023-08-07T11:57:46;18.40;99.90
6581;DHT22;3324;50.796;7.228;2023-08-07T12:00:12;18.40;99.90
6581;DHT22;3324;50.796;7.228;2023-08-07T12:02:44;18.40;99.90
6581;DHT22;3324;50.796;7.228;2023-08-07T12:05:13;18.50;99.90
6581;DHT22;3324;50.796;7.228;2023-08-07T12:07:39;18.80;99.90
6581;DHT22;3324;50.796;7.228;2023-08-07T12:10:09;19.10;99.90
6581;DHT22;3324;50.796;7.228;2023-08-07T12:12:38;19.50;99.90
6581;DHT22;3324;50.796;7.228;2023-08-07T12:15:10;19.80;99.90
6581;DHT22;3324;50.796;7.228;2023-08-07T12:17:36;20.00;99.90
6581;DHT22;3324;50.796;7.228;2023-08-07T12:20:04;20.10;99.90
6581;DHT22;3324;50.796;7.228;2023-08-07T12:22:32;20.00;99.90
6581;DHT22;3324;50.796;7.228;2023-08-07T12:24:58;19.70;99.90
6581;DHT22;3324;50.796;7.228;2023-08-07T12:27:24;19.40;99.90
6581;DHT22;3324;50.796;7.228;2023-08-07T12:29:49;19.50;99.90
6581;DHT22;3324;50.796;7.228;2023-08-07T12:32:15;19.60;99.90
6581;DHT22;3324;50.796;7.228;2023-08-07T12:34:41;19.70;99.90
6581;DHT22;3324;50.796;7.228;2023-08-07T12:37:06;19.70;99.90
6581;DHT22;3324;50.796;7.228;2023-08-07T12:39:32;19.70;99.90
6581;DHT22;3324;50.796;7.228;2023-08-07T12:41:58;19.80;99.90
6581;DHT22;3324;50.796;7.228;2023-08-07T12:44:24;20.00;99.90
6581;DHT22;3324;50.796;7.228;2023-08-07T12:46:49;20.20;99.90
6581;DHT22;3324;50.796;7.228;2023-08-07T12:49:15;20.40;99.90
6581;DHT22;3324;50.796;7.228;2023-08-07T12:51:43;20.60;99.90
6581;DHT22;3324;50.796;7.228;2023-08-07T12:54:11;20.70;99.90
6581;DHT22;3324;50.796;7.228;2023-08-07T12:56:37;20.60;99.90
6581;DHT22;3324;50.796;7.228;2023-08-07T12:59:02;20.50;99.90
6581;DHT22;3324;50.796;7.228;2023-08-07T13:01:28;20.40;99.90
6581;DHT22;3324;50.796;7.228;2023-08-07T13:03:54;20.20;99.90
6581;DHT22;3324;50.796;7.228;2023-08-07T13:06:21;20.10;99.90
6581;DHT22;3324;50.796;7.228;2023-08-07T13:08:46;20.10;99.90
6581;DHT22;3324;50.796;7.228;2023-08-07T13:11:12;20.00;99.90
6581;DHT22;3324;50.796;7.228;2023-08-07T13:13:38;19.80;99.90
6581;DHT22;3324;50.796;7.228;2023-08-07T13:16:06;19.80;99.90
6581;DHT22;3324;50.796;7.228;2023-08-07T13:18:32;19.70;99.90
6581;DHT22;3324;50.796;7.228;2023-08-07T13:20:58;19.80;99.90
6581;DHT22;3324;50.796;7.228;2023-08-07T13:23:24;19.80;99.90
6581;DHT22;3324;50.796;7.228;2023-08-07T13:25:49;19.80;99.90
6581;DHT22;3324;50.796;7.228;2023-08-07T13:28:15;20.00;99.90
6581;DHT22;3324;50.796;7.228;2023-08-07T13:30:42;20.10;99.90
6581;DHT22;3324;50.796;7.228;2023-08-07T13:33:07;20.10;99.90
6581;DHT22;3324;50.796;7.228;2023-08-07T13:35:33;20.30;99.90
6581;DHT22;3324;50.796;7.228;2023-08-07T13:37:58;20.40;99.90
6581;DHT22;3324;50.796;7.228;2023-08-07T13:40:24;20.50;99.90
6581;DHT22;3324;50.796;7.228;2023-08-07T13:42:50;20.70;99.90
6581;DHT22;3324;50.796;7.228;2023-08-07T13:45:15;20.90;99.90
6581;DHT22;3324;50.796;7.228;2023-08-07T13:47:41;21.00;99.90
6581;DHT22;3324;50.796;7.228;2023-08-07T13:50:07;20.90;99.90
6581;DHT22;3324;50.796;7.228;2023-08-07T13:52:36;20.80;99.90
6581;DHT22;3324;50.796;7.228;2023-08-07T13:55:01;20.70;99.90
6581;DHT22;3324;50.796;7.228;2023-08-07T13:57:27;20.60;99.90
6581;DHT22;3324;50.796;7.228;2023-08-07T13:59:53;20.50;99.90
6581;DHT22;3324;50.796;7.228;2023-08-07T14:02:20;20.50;99.90
6581;DHT22;3324;50.796;7.228;2023-08-07T14:04:45;20.60;99.90
6581;DHT22;3324;50.796;7.228;2023-08-07T14:07:11;20.80;99.90
6581;DHT22;3324;50.796;7.228;2023-08-07T14:09:37;20.80;99.90
6581;DHT22;3324;50.796;7.228;2023-08-07T14:12:03;20.80;99.90
6581;DHT22;3324;50.796;7.228;2023-08-07T14:14:29;20.70;99.90
6581;DHT22;3324;50.796;7.228;2023-08-07T14:16:55;20.50;99.90
6581;DHT22;3324;50.796;7.228;2023-08-07T14:19:26;20.20;99.90
6581;DHT22;3324;50.796;7.228;2023-08-07T14:21:51;20.10;99.90
6581;DHT22;3324;50.796;7.228;2023-08-07T14:24:17;19.90;99.90
6581;DHT22;3324;50.796;7.228;2023-08-07T14:26:49;19.70;99.90
6581;DHT22;3324;50.796;7.228;2023-08-07T14:29:15;19.60;99.90
6581;DHT22;3324;50.796;7.228;2023-08-07T14:31:40;19.50;99.90
6581;DHT22;3324;50.796;7.228;2023-08-07T14:34:06;19.30;99.90
6581;DHT22;3324;50.796;7.228;2023-08-07T14:36:32;19.00;99.90
6581;DHT22;3324;50.796;7.228;2023-08-07T14:38:58;18.80;99.90
6581;DHT22;3324;50.796;7.228;2023-08-07T14:41:24;18.60;99.90
6581;DHT22;3324;50.796;7.228;2023-08-07T14:43:49;18.40;99.90
6581;DHT22;3324;50.796;7.228;2023-08-07T14:46:16;18.40;99.90
6581;DHT22;3324;50.796;7.228;2023-08-07T14:48:41;18.40;99.90
6581;DHT22;3324;50.796;7.228;2023-08-07T14:51:07;18.40;99.90
6581;DHT22;3324;50.796;7.228;2023-08-07T14:53:33;18.40;99.90
6581;DHT22;3324;50.796;7.228;2023-08-07T14:55:59;18.40;99.90
6581;DHT22;3324;50.796;7.228;2023-08-07T14:58:25;18.40;99.90
6581;DHT22;3324;50.796;7.228;2023-08-07T15:00:54;18.30;99.90
6581;DHT22;3324;50.796;7.228;2023-08-07T15:03:19;18.30;99.90
6581;DHT22;3324;50.796;7.228;2023-08-07T15:05:45;18.20;99.90
6581;DHT22;3324;50.796;7.228;2023-08-07T15:08:10;18.20;99.90
6581;DHT22;3324;50.796;7.228;2023-08-07T15:10:36;18.30;99.90
6581;DHT22;3324;50.796;7.228;2023-08-07T15:13:02;18.40;99.90
6581;DHT22;3324;50.796;7.228;2023-08-07T15:15:27;18.30;99.90
6581;DHT22;3324;50.796;7.228;2023-08-07T15:17:53;18.20;99.90
6581;DHT22;3324;50.796;7.228;2023-08-07T15:20:19;18.20;99.90
6581;DHT22;3324;50.796;7.228;2023-08-07T15:22:46;18.20;99.90
6581;DHT22;3324;50.796;7.228;2023-08-07T15:25:13;18.20;99.90
6581;DHT22;3324;50.796;7.228;2023-08-07T15:27:39;18.30;99.90
6581;DHT22;3324;50.796;7.228;2023-08-07T15:30:05;18.20;99.90
6581;DHT22;3324;50.796;7.228;2023-08-07T15:32:30;18.30;99.90
6581;DHT22;3324;50.796;7.228;2023-08-07T15:34:56;18.40;99.90
6581;DHT22;3324;50.796;7.228;2023-08-07T15:37:22;18.50;99.90
6581;DHT22;3324;50.796;7.228;2023-08-07T15:39:47;18.50;99.90
6581;DHT22;3324;50.796;7.228;2023-08-07T15:42:13;18.50;99.90
6581;DHT22;3324;50.796;7.228;2023-08-07T15:44:38;18.60;99.90
6581;DHT22;3324;50.796;7.228;2023-08-07T15:47:04;18.60;99.90
6581;DHT22;3324;50.796;7.228;2023-08-07T15:49:30;18.60;99.90
6581;DHT22;3324;50.796;7.228;2023-08-07T15:51:56;18.70;99.90
6581;DHT22;3324;50.796;7.228;2023-08-07T15:54:21;18.70;99.90
6581;DHT22;3324;50.796;7.228;2023-08-07T15:56:47;18.70;99.90
6581;DHT22;3324;50.796;7.228;2023-08-07T15:59:12;18.80;99.90
6581;DHT22;3324;50.796;7.228;2023-08-07T16:01:38;18.70;99.90
6581;DHT22;3324;50.796;7.228;2023-08-07T16:04:04;18.60;99.90
6581;DHT22;3324;50.796;7.228;2023-08-07T16:06:30;18.60;99.90
6581;DHT22;3324;50.796;7.228;2023-08-07T16:08:55;18.50;99.90